Date,TemperatureHighF,TemperatureAvgF,TemperatureLowF,DewpointHighF,DewpointAvgF,DewpointLowF,HumidityHigh,HumidityAvg,HumidityLow,PressureMaxIn,PressureMinIn,WindSpeedMaxMPH,WindSpeedAvgMPH,GustSpeedMaxMPH,PrecipitationSumIn
2012-6-4,98,85,76,76,72,68,81,65,44,29.52,29.39,9,1,9,0.00
2012-6-5,94,84,79,76,73,70,85,70,46,29.42,29.34,9,1,9,0.00
2012-6-6,90,83,79,76,73,68,84,72,52,29.48,29.40,5,1,5,0.00
2012-6-7,100,86,80,78,75,71,86,69,44,29.50,29.43,7,2,7,0.00
2012-6-8,96,84,78,76,74,72,85,72,53,29.50,29.41,7,1,7,0.00
2012-6-9,94,82,76,78,75,73,89,80,58,29.55,29.47,4,0,4,0.00
2012-6-10,96,88,77,78,75,72,89,66,52,29.65,29.51,10,2,10,0.00
2012-6-11,95,85,79,73,70,67,78,63,45,29.64,29.56,12,2,12,0.00
2012-6-12,97,84,76,70,67,64,70,57,41,29.61,29.49,9,1,9,0.00
2012-6-13,101,87,73,74,69,66,81,59,40,29.53,29.41,9,1,10,0.00
2012-6-14,101,86,77,78,73,69,79,66,42,29.52,29.41,14,1,14,0.00
2012-6-15,98,82,74,76,72,68,83,71,48,29.55,29.44,12,2,12,0.04
2012-6-16,91,82,77,72,69,65,79,65,49,29.56,29.45,17,4,17,0.00
2012-6-17,92,82,76,69,66,62,71,58,44,29.56,29.46,18,3,18,0.00
2012-6-18,95,83,76,69,65,63,71,56,39,29.55,29.46,11,3,11,0.00
2012-6-19,89,82,78,72,70,66,79,66,56,29.56,29.49,16,5,16,0.00
2012-6-20,86,79,76,75,72,70,88,82,64,29.54,29.45,16,2,16,0.04
2012-6-21,96,83,76,76,73,70,85,72,51,29.52,29.40,13,2,13,0.00
2012-6-22,90,80,75,78,73,70,87,79,60,29.49,29.35,11,1,11,0.08
2012-6-23,89,79,74,78,73,69,89,82,66,29.53,29.38,15,2,15,0.17
2012-6-24,81,78,74,77,74,69,91,87,84,29.51,29.38,19,3,19,0.00
2012-6-25,97,85,80,76,74,72,85,72,49,29.39,29.28,15,5,15,0.00
2012-6-26,97,86,80,75,73,69,81,67,47,29.31,29.24,19,6,19,0.12
2012-6-27,98,85,79,78,74,72,82,71,48,29.52,29.28,19,5,19,0.33
2012-6-28,96,84,75,76,71,68,81,66,50,29.59,29.51,10,1,10,0.00
2012-6-29,98,87,76,76,72,69,80,62,46,29.58,29.47,10,1,10,0.00
2012-6-30,101,87,78,77,73,70,82,64,45,29.55,29.46,12,1,12,0.00
2012-7-1,102,88,79,78,73,70,81,64,43,29.61,29.51,10,1,10,0.00
2012-7-2,102,88,78,78,74,70,83,64,37,29.65,29.52,10,1,10,0.00
2012-7-3,102,88,78,78,74,71,82,64,40,29.60,29.52,10,1,10,0.00
2012-7-4,98,86,80,77,74,70,83,69,50,29.62,29.53,9,1,9,0.00
2012-7-5,102,86,77,77,73,70,83,66,45,29.59,29.51,10,1,10,0.00
2012-7-6,102,88,78,77,73,70,82,63,41,29.59,29.52,12,1,12,0.00
2012-7-7,101,88,79,76,74,71,80,64,42,29.62,29.54,10,2,10,0.00
2012-7-8,99,87,79,77,74,71,85,67,48,29.61,29.54,10,1,10,0.00
2012-7-9,97,86,78,76,73,70,87,68,50,29.59,29.49,9,1,9,0.00
2012-7-10,100,87,78,78,74,72,84,68,45,29.57,29.47,13,2,13,0.04
2012-7-11,92,80,74,74,72,69,88,77,53,29.60,29.47,12,1,12,0.04
2012-7-12,97,84,77,76,72,68,82,69,44,29.57,29.49,18,1,18,0.00
2012-7-13,96,84,75,76,73,69,87,70,51,29.58,29.51,14,2,14,0.00
2012-7-14,95,85,80,77,72,70,77,67,52,29.61,29.50,11,3,11,0.08
2012-7-15,99,83,76,76,72,70,84,70,43,29.65,29.55,10,2,10,0.04
2012-7-16,95,80,74,76,72,69,87,79,55,29.64,29.51,8,0,8,0.00
2012-7-17,95,80,74,78,73,70,89,80,55,29.58,29.49,10,0,10,0.00
2012-7-18,100,85,74,79,74,69,87,71,46,29.66,29.52,15,1,15,0.00
2012-7-19,101,88,78,78,75,73,87,67,46,29.71,29.62,10,1,10,0.00
2012-7-20,100,88,80,78,75,73,79,66,48,29.67,29.57,10,2,10,0.00
2012-7-21,99,88,82,79,76,74,79,69,52,29.63,29.55,10,2,10,0.00
2012-7-22,90,81,76,78,74,70,87,79,66,29.66,29.55,19,1,19,0.17
2012-7-23,97,83,75,78,74,69,89,76,52,29.70,29.62,8,0,8,0.00
2012-7-24,101,87,81,80,76,69,86,71,50,29.67,29.55,10,1,10,0.00
2012-7-25,104,89,79,78,74,73,83,65,40,29.59,29.51,10,1,10,0.00
2012-7-26,101,88,78,78,74,72,82,64,44,29.58,29.51,11,1,11,0.00
2012-7-27,101,89,79,78,74,72,81,63,42,29.63,29.52,9,1,9,0.00
2012-7-28,101,86,78,78,73,70,83,66,42,29.63,29.56,10,1,10,0.00
2012-7-29,102,88,77,76,73,70,84,62,41,29.62,29.53,9,1,9,0.00
2012-7-30,103,87,79,76,71,65,79,62,40,29.59,29.50,10,1,10,0.00
2012-7-31,104,88,76,77,72,68,78,61,40,29.59,29.49,10,1,10,0.00
2012-8-1,104,88,79,78,73,69,79,64,43,29.55,29.46,10,1,10,0.00
2012-8-2,101,87,79,78,75,73,85,68,45,29.52,29.45,9,1,9,0.00
2012-8-3,95,82,78,78,74,72,87,78,56,29.54,29.44,10,0,10,0.00
2012-8-4,97,84,76,77,74,72,90,74,51,29.58,29.46,10,2,10,0.00
2012-8-5,100,87,80,78,75,72,82,68,49,29.61,29.53,9,2,9,0.00
2012-8-6,93,82,78,79,75,70,86,77,63,29.60,29.51,11,1,11,0.16
2012-8-7,99,87,77,79,75,72,88,69,46,29.57,29.48,10,2,10,0.00
2012-8-8,101,88,81,78,75,72,80,66,47,29.57,29.49,10,1,10,0.00
2012-8-9,101,88,81,78,75,71,79,65,46,29.56,29.44,10,2,10,0.00
2012-8-10,94,83,79,77,73,70,78,71,53,29.54,29.45,10,1,10,0.33
2012-8-11,97,83,76,77,72,69,85,73,52,29.57,29.46,10,1,10,0.00
2012-8-12,100,83,76,78,74,70,88,77,49,29.59,29.50,11,0,11,0.20
2012-8-13,99,85,76,79,75,72,89,75,51,29.60,29.52,7,0,7,0.00
2012-8-14,102,87,79,78,75,73,85,68,43,29.59,29.48,9,1,9,0.00
2012-8-15,96,86,79,82,76,73,86,72,55,29.57,29.50,11,1,11,0.20
2012-8-16,96,84,79,78,75,73,86,76,52,29.61,29.51,7,0,7,0.04
2012-8-17,101,85,76,78,73,68,87,71,39,29.58,29.45,10,1,10,0.00
2012-8-18,100,82,76,81,74,71,88,76,46,29.53,29.43,9,1,9,0.04
2012-8-19,100,86,78,78,75,73,88,73,49,29.54,29.45,15,1,15,0.09
2012-8-20,100,86,78,78,75,70,87,70,47,29.55,29.44,13,2,13,0.00
2012-8-21,100,86,79,77,73,69,82,66,45,29.61,29.50,11,2,11,0.00
2012-8-22,100,84,76,79,72,68,83,69,47,29.62,29.54,10,1,10,0.00
2012-8-23,99,86,76,77,73,69,85,67,47,29.61,29.53,13,1,13,0.00
2012-8-24,93,84,75,76,72,67,83,67,53,29.57,29.44,17,2,17,0.16
2012-8-25,85,79,74,77,72,66,87,79,73,29.50,29.40,15,4,15,0.00
2012-8-26,83,79,76,76,74,71,91,86,73,29.41,29.22,24,7,24,0.00
2012-8-27,86,80,76,79,75,72,91,87,77,29.48,29.25,21,7,21,0.08
2012-8-28,98,84,77,81,76,73,91,77,56,29.54,29.44,13,3,13,0.04
2012-8-29,98,87,79,78,75,73,84,70,50,29.53,29.44,16,2,16,0.00
2012-8-30,98,86,78,78,74,72,86,69,50,29.63,29.48,10,1,10,0.00
2012-8-31,98,86,80,76,74,71,84,69,46,29.67,29.58,10,0,10,0.00
2012-9-1,95,85,78,76,74,72,86,71,54,29.64,29.55,17,2,17,0.00
2012-9-2,93,83,77,74,71,69,84,68,51,29.58,29.49,10,2,10,0.00
2012-9-3,97,85,76,76,72,69,83,66,46,29.57,29.49,10,1,10,0.00
2012-9-4,100,84,76,76,71,62,82,67,46,29.57,29.46,10,1,10,0.00
2012-9-5,101,82,76,77,71,67,83,71,46,29.55,29.45,10,1,10,0.00
2012-9-6,95,80,75,78,72,66,87,77,54,29.57,29.48,11,1,11,0.04
2012-9-7,97,81,73,78,72,68,87,75,53,29.53,29.44,9,0,9,0.00
2012-9-8,101,84,75,76,72,70,88,70,40,29.51,29.40,10,1,10,0.00
2012-9-9,99,87,78,75,72,69,81,64,42,29.51,29.41,10,1,10,0.00
2012-9-10,95,85,79,77,74,71,83,70,51,29.53,29.45,10,1,10,0.00
2012-9-11,94,83,77,77,73,71,87,74,55,29.59,29.50,12,2,12,0.00
2012-9-12,93,84,78,75,72,69,86,69,53,29.59,29.50,17,4,17,0.04
2012-9-13,85,81,76,74,72,70,85,76,67,29.60,29.49,10,2,10,0.00
2012-9-14,94,82,75,76,72,69,86,73,55,29.55,29.47,10,1,10,0.04
2012-9-15,94,82,76,77,73,69,89,76,52,29.57,29.49,10,1,10,0.00
2012-9-16,78,78,77,73,72,71,85,83,81,29.55,29.51,0,0,0,0.00
2012-9-27,92,82,76,75,73,68,85,73,56,29.59,29.50,9,1,9,0.00
2012-9-28,93,80,75,77,73,71,89,78,52,29.55,29.44,8,0,8,0.00
2012-9-29,95,83,75,77,73,70,87,74,51,29.49,29.37,9,1,9,0.00
2012-9-30,96,84,75,76,73,71,87,72,50,29.43,29.31,10,1,10,0.00
2012-10-1,93,81,76,77,73,72,88,79,59,29.41,29.29,10,1,10,0.00
2012-10-2,91,80,74,78,74,70,89,82,63,29.59,29.39,13,2,13,0.00
2012-10-3,94,83,76,79,75,72,90,78,57,29.69,29.56,10,1,10,0.00
2012-10-4,97,85,79,78,75,73,87,74,54,29.68,29.57,10,1,10,0.00
2012-10-5,95,85,80,77,74,72,83,71,51,29.62,29.45,9,1,9,0.00
2012-10-6,95,83,78,76,73,72,86,74,52,29.50,29.37,7,1,7,0.00
2012-10-7,91,80,75,76,72,70,88,79,57,29.50,29.39,9,1,9,0.00
2012-10-8,92,81,76,77,74,72,89,79,58,29.54,29.43,8,0,8,0.00
2012-10-9,94,83,76,76,74,71,91,75,53,29.54,29.47,9,1,9,0.00
2012-10-10,90,81,76,76,72,69,87,75,60,29.59,29.49,11,2,11,0.00
2012-10-11,88,80,73,70,67,64,84,67,49,29.63,29.55,16,3,16,0.00
2012-10-12,87,80,74,66,64,62,71,59,46,29.64,29.55,16,5,16,0.00
2012-10-13,86,79,72,72,66,63,81,66,48,29.62,29.54,18,5,18,0.00
2012-10-14,88,81,78,75,71,65,80,72,63,29.58,29.45,16,5,16,0.00
2012-10-15,83,79,78,72,72,71,81,79,70,29.46,29.37,10,1,10,0.00
2012-10-25,78,76,72,70,68,64,83,77,66,29.16,29.09,20,7,20,0.00
2012-10-26,80,74,69,71,67,63,90,79,64,29.09,28.91,23,6,23,0.00
2012-10-27,84,74,68,66,62,60,82,66,46,29.14,28.92,15,4,15,0.00
2012-10-28,86,73,67,64,61,54,86,67,45,29.24,29.11,11,2,11,0.00
2012-10-29,76,66,59,55,48,40,70,54,30,29.32,29.20,15,3,15,0.00
2012-10-30,75,64,55,50,46,40,70,55,38,29.45,29.27,15,2,15,0.00
2012-10-31,77,65,55,55,50,45,82,62,39,29.52,29.43,9,0,9,0.00
2012-11-1,84,69,57,62,57,51,84,68,44,29.52,29.41,7,0,7,0.00
2012-11-2,83,71,63,63,56,48,88,62,34,29.54,29.45,8,0,8,0.00
2012-11-3,86,70,59,60,55,47,80,61,28,29.59,29.49,7,0,7,0.00
2012-11-4,86,72,62,64,61,57,84,70,46,29.56,29.45,4,0,4,0.00
2012-11-5,83,72,66,62,59,56,84,66,44,29.48,29.38,6,0,6,0.00
2012-11-6,86,73,64,65,60,54,84,65,34,29.39,29.26,8,1,8,0.00
2012-11-7,74,67,60,62,54,48,83,64,47,29.44,29.28,13,2,13,0.00
2012-11-8,72,62,55,50,44,38,72,53,32,29.56,29.41,14,2,14,0.00
2012-11-9,78,67,57,56,51,48,76,59,40,29.65,29.54,12,2,12,0.00
2012-11-10,80,72,69,57,53,50,60,52,44,29.71,29.61,10,2,10,0.00
2012-11-11,83,76,71,65,59,54,79,57,41,29.69,29.61,11,3,11,0.04
2012-11-12,85,76,70,69,65,61,85,71,55,29.65,29.56,13,2,13,0.00
2012-11-13,83,76,70,66,64,62,78,68,54,29.59,29.50,8,1,8,0.00
2012-11-14,85,74,68,68,64,61,84,71,54,29.57,29.49,10,1,10,0.00
2012-11-15,85,73,64,67,62,59,85,72,47,29.55,29.48,8,0,8,0.00
2012-11-16,79,70,64,66,63,61,89,80,64,29.56,29.47,8,1,8,0.00
2012-11-17,81,72,66,65,63,61,90,75,55,29.55,29.47,10,1,10,0.00
2012-11-18,82,72,67,67,64,62,87,78,57,29.56,29.48,8,1,10,0.00
2012-11-19,75,66,60,62,57,55,84,74,56,29.58,29.46,8,1,8,0.00
2012-11-20,74,66,60,63,59,55,90,79,67,29.49,29.36,11,1,11,0.00
2012-11-21,79,67,60,62,56,52,85,69,48,29.48,29.36,9,2,9,0.00
2012-11-22,76,64,57,55,50,47,73,60,44,29.55,29.44,13,3,13,0.00
2012-11-23,79,65,55,58,52,48,77,65,47,29.58,29.48,8,1,8,0.00
2012-11-24,76,64,54,54,51,46,77,63,39,29.56,29.45,15,1,15,0.00
2012-11-25,79,65,55,58,53,49,83,68,43,29.58,29.49,3,0,3,0.00
2012-11-26,81,69,59,63,58,52,83,69,50,29.64,29.55,7,0,7,0.00
2012-11-27,84,73,65,66,62,58,81,70,52,29.64,29.54,8,1,8,0.00
2012-11-28,80,71,66,64,62,60,86,74,51,29.63,29.54,9,1,9,0.00
2012-11-29,80,71,62,64,61,58,87,72,57,29.66,29.59,9,2,9,0.00
2012-11-30,77,73,70,61,60,57,69,63,55,29.67,29.58,10,2,10,0.00
2012-12-1,81,74,71,62,61,60,70,64,52,29.64,29.57,9,2,9,0.00
2012-12-2,81,74,71,65,63,61,73,67,57,29.68,29.59,9,2,9,0.00
2012-12-3,80,73,70,63,59,51,74,61,47,29.70,29.61,9,1,9,0.00
2012-12-4,81,74,70,62,58,51,68,59,46,29.68,29.59,9,1,9,0.00
2012-12-5,72,70,67,63,62,60,81,75,67,29.59,29.54,8,0,8,0.00
2012-12-6,84,76,69,66,64,62,85,67,53,29.43,29.35,10,0,10,0.00
2012-12-7,84,74,68,69,66,64,88,76,57,29.43,29.35,9,1,10,0.00
2012-12-8,83,75,68,70,68,63,87,79,66,29.48,29.40,8,1,8,0.00
2012-12-9,86,77,70,74,70,66,89,81,63,29.54,29.43,7,0,7,0.00
2012-12-10,86,77,71,75,71,68,91,82,66,29.48,29.35,12,2,12,0.00
2012-12-11,91,79,72,76,72,67,87,79,58,29.50,29.37,10,1,10,0.00
2012-12-12,86,78,74,72,70,68,87,78,62,29.54,29.45,9,1,9,0.00
2012-12-13,79,72,66,72,66,61,88,82,74,29.55,29.47,10,1,10,0.00
2012-12-14,78,69,63,67,62,58,88,78,51,29.58,29.49,13,1,13,0.00
2012-12-15,79,73,68,65,63,61,85,70,59,29.55,29.46,8,1,8,0.00
2012-12-16,84,75,68,68,65,62,84,73,56,29.49,29.40,9,1,9,0.00
2012-12-17,85,74,65,67,64,61,87,74,49,29.43,29.33,7,1,7,0.00
2012-12-18,85,74,67,69,65,63,89,74,52,29.46,29.35,6,0,6,0.00
2012-12-19,83,72,62,64,61,54,83,69,49,29.54,29.45,5,0,5,0.00
2012-12-20,85,73,64,65,63,59,84,71,49,29.54,29.41,8,1,8,0.00
2012-12-21,71,64,52,67,50,37,87,61,36,29.62,29.40,16,3,16,0.00
2012-12-22,65,54,46,39,31,24,62,43,27,29.70,29.61,13,2,13,0.00
2012-12-23,74,60,48,54,44,31,75,56,46,29.69,29.58,7,0,7,0.00
2012-12-24,79,66,57,60,54,50,79,67,49,29.59,29.44,8,1,8,0.00
2012-12-25,80,69,59,63,59,54,84,71,51,29.50,29.38,8,1,8,0.00
2012-12-26,85,75,64,69,65,57,86,74,56,29.43,29.28,12,2,12,0.04
2012-12-27,74,62,54,57,48,41,82,63,35,29.52,29.42,7,0,7,0.00
2012-12-28,78,67,54,68,60,46,88,79,70,29.53,29.41,7,0,7,0.00
2012-12-29,83,74,63,72,68,50,90,80,63,29.55,29.37,8,2,8,0.00
2012-12-30,68,61,51,54,50,43,76,67,58,29.73,29.55,9,3,12,0.00
2012-12-31,76,69,65,60,56,52,68,63,54,29.75,29.64,8,2,8,0.00
2013-1-1,83,73,67,63,59,56,75,62,50,29.65,29.50,12,1,12,0.00